sensor_id;sensor_type;location;lat;lon;timestamp;pressure;altitude;pressure_sealevel;temperature;humidity
50684;BME280;36654;45.042;38.994;2023-08-08T00:00:35;100546.75;;;27.80;61.50
50684;BME280;36654;45.042;38.994;2023-08-08T00:03:01;100549.38;;;27.81;61.48
50684;BME280;36654;45.042;38.994;2023-08-08T00:05:27;100538.66;;;27.78;61.56
50684;BME280;36654;45.042;38.994;2023-08-08T00:07:53;100538.78;;;27.77;61.54
50684;BME280;36654;45.042;38.994;2023-08-08T00:10:18;100537.69;;;27.65;61.76
50684;BME280;36654;45.042;38.994;2023-08-08T00:12:44;100553.97;;;27.66;61.91
50684;BME280;36654;45.042;38.994;2023-08-08T00:15:09;100551.00;;;27.55;62.14
50684;BME280;36654;45.042;38.994;2023-08-08T00:17:35;100545.09;;;27.48;62.49
50684;BME280;36654;45.042;38.994;2023-08-08T00:20:01;100549.47;;;27.51;62.39
50684;BME280;36654;45.042;38.994;2023-08-08T00:22:27;100551.63;;;27.46;62.80
50684;BME280;36654;45.042;38.994;2023-08-08T00:24:52;100545.53;;;27.41;62.80
50684;BME280;36654;45.042;38.994;2023-08-08T00:27:18;100555.47;;;27.42;62.99
50684;BME280;36654;45.042;38.994;2023-08-08T00:29:44;100510.69;;;27.17;63.25
50684;BME280;36654;45.042;38.994;2023-08-08T00:32:10;100552.19;;;27.37;62.98
50684;BME280;36654;45.042;38.994;2023-08-08T00:34:36;100540.50;;;27.35;62.96
50684;BME280;36654;45.042;38.994;2023-08-08T00:37:02;100501.75;;;27.15;63.33
50684;BME280;36654;45.042;38.994;2023-08-08T00:39:27;100536.78;;;27.36;63.55
50684;BME280;36654;45.042;38.994;2023-08-08T00:41:53;100535.25;;;27.31;64.11
50684;BME280;36654;45.042;38.994;2023-08-08T00:44:19;100541.75;;;27.29;64.91
50684;BME280;36654;45.042;38.994;2023-08-08T00:46:44;100531.25;;;27.23;65.20
50684;BME280;36654;45.042;38.994;2023-08-08T00:49:10;100540.09;;;27.26;65.46
50684;BME280;36654;45.042;38.994;2023-08-08T00:51:36;100530.56;;;27.19;66.27
50684;BME280;36654;45.042;38.994;2023-08-08T00:54:03;100498.59;;;26.93;66.07
50684;BME280;36654;45.042;38.994;2023-08-08T00:56:29;100524.84;;;27.08;67.10
50684;BME280;36654;45.042;38.994;2023-08-08T00:58:56;100539.84;;;27.15;66.98
50684;BME280;36654;45.042;38.994;2023-08-08T01:01:21;100541.88;;;27.11;67.08
50684;BME280;36654;45.042;38.994;2023-08-08T01:03:48;100520.16;;;26.96;67.54
50684;BME280;36654;45.042;38.994;2023-08-08T01:06:31;100547.41;;;27.10;67.58
50684;BME280;36654;45.042;38.994;2023-08-08T01:09:05;100540.69;;;27.01;68.72
50684;BME280;36654;45.042;38.994;2023-08-08T01:11:34;100542.50;;;27.01;68.96
50684;BME280;36654;45.042;38.994;2023-08-08T01:14:02;100538.25;;;26.97;68.70
50684;BME280;36654;45.042;38.994;2023-08-08T01:16:30;100544.84;;;26.93;69.21
50684;BME280;36654;45.042;38.994;2023-08-08T01:18:56;100537.84;;;26.88;69.47
50684;BME280;36654;45.042;38.994;2023-08-08T01:21:23;100533.75;;;26.81;69.61
50684;BME280;36654;45.042;38.994;2023-08-08T01:23:56;100552.19;;;26.90;70.11
50684;BME280;36654;45.042;38.994;2023-08-08T01:26:26;100538.72;;;26.73;71.04
50684;BME280;36654;45.042;38.994;2023-08-08T01:28:53;100550.91;;;26.82;70.92
50684;BME280;36654;45.042;38.994;2023-08-08T01:31:20;100553.72;;;26.80;71.08
50684;BME280;36654;45.042;38.994;2023-08-08T01:33:46;100544.78;;;26.78;71.43
50684;BME280;36654;45.042;38.994;2023-08-08T01:36:28;100515.97;;;26.60;71.84
50684;BME280;36654;45.042;38.994;2023-08-08T01:38:59;100546.81;;;26.75;71.48
50684;BME280;36654;45.042;38.994;2023-08-08T01:41:31;100559.34;;;26.77;72.14
50684;BME280;36654;45.042;38.994;2023-08-08T01:43:58;100555.03;;;26.73;71.83
50684;BME280;36654;45.042;38.994;2023-08-08T01:46:25;100550.66;;;26.71;72.08
50684;BME280;36654;45.042;38.994;2023-08-08T01:48:51;100564.19;;;26.72;72.44
50684;BME280;36654;45.042;38.994;2023-08-08T01:51:17;100554.38;;;26.70;72.42
50684;BME280;36654;45.042;38.994;2023-08-08T01:53:43;100563.56;;;26.67;73.13
50684;BME280;36654;45.042;38.994;2023-08-08T01:56:08;100576.66;;;26.60;73.17
50684;BME280;36654;45.042;38.994;2023-08-08T01:58:34;100565.28;;;26.54;73.38
50684;BME280;36654;45.042;38.994;2023-08-08T02:00:59;100579.81;;;26.53;73.12
50684;BME280;36654;45.042;38.994;2023-08-08T02:03:25;100579.16;;;26.47;73.78
50684;BME280;36654;45.042;38.994;2023-08-08T02:05:51;100532.44;;;26.25;74.25
50684;BME280;36654;45.042;38.994;2023-08-08T02:08:16;100581.69;;;26.51;74.11
50684;BME280;36654;45.042;38.994;2023-08-08T02:10:43;100579.81;;;26.53;74.04
50684;BME280;36654;45.042;38.994;2023-08-08T02:13:09;100577.97;;;26.53;73.84
50684;BME280;36654;45.042;38.994;2023-08-08T02:15:34;100573.91;;;26.44;73.81
50684;BME280;36654;45.042;38.994;2023-08-08T02:18:00;100581.69;;;26.51;73.90
50684;BME280;36654;45.042;38.994;2023-08-08T02:20:26;100578.22;;;26.49;74.16
50684;BME280;36654;45.042;38.994;2023-08-08T02:22:51;100582.75;;;26.48;74.44
50684;BME280;36654;45.042;38.994;2023-08-08T02:25:17;100578.03;;;26.52;74.51
50684;BME280;36654;45.042;38.994;2023-08-08T02:27:43;100578.03;;;26.52;73.91
50684;BME280;36654;45.042;38.994;2023-08-08T02:30:09;100549.44;;;26.44;73.76
50684;BME280;36654;45.042;38.994;2023-08-08T02:32:35;100596.44;;;26.78;73.49
50684;BME280;36654;45.042;38.994;2023-08-08T02:35:00;100600.09;;;26.93;73.07
50684;BME280;36654;45.042;38.994;2023-08-08T02:37:26;100569.63;;;27.02;72.44
50684;BME280;36654;45.042;38.994;2023-08-08T02:39:52;100591.41;;;27.32;71.69
50684;BME280;36654;45.042;38.994;2023-08-08T02:42:17;100558.22;;;27.42;70.79
50684;BME280;36654;45.042;38.994;2023-08-08T02:44:43;100555.91;;;27.79;69.74
50684;BME280;36654;45.042;38.994;2023-08-08T02:47:09;100590.63;;;28.18;68.72
50684;BME280;36654;45.042;38.994;2023-08-08T02:49:34;100577.66;;;28.36;67.61
50684;BME280;36654;45.042;38.994;2023-08-08T02:52:01;100580.59;;;28.47;66.83
50684;BME280;36654;45.042;38.994;2023-08-08T02:54:27;100581.97;;;28.67;66.52
50684;BME280;36654;45.042;38.994;2023-08-08T02:56:52;100593.94;;;29.06;65.56
50684;BME280;36654;45.042;38.994;2023-08-08T02:59:18;100587.59;;;29.45;64.21
50684;BME280;36654;45.042;38.994;2023-08-08T03:01:43;100585.31;;;29.91;62.80
50684;BME280;36654;45.042;38.994;2023-08-08T03:04:09;100582.44;;;30.30;61.13
50684;BME280;36654;45.042;38.994;2023-08-08T03:06:35;100569.19;;;30.61;59.07
50684;BME280;36654;45.042;38.994;2023-08-08T03:09:00;100537.66;;;30.68;58.05
50684;BME280;36654;45.042;38.994;2023-08-08T03:11:26;100575.38;;;31.00;57.08
50684;BME280;36654;45.042;38.994;2023-08-08T03:13:52;100574.94;;;31.17;56.36
50684;BME280;36654;45.042;38.994;2023-08-08T03:16:17;100573.97;;;31.30;56.43
50684;BME280;36654;45.042;38.994;2023-08-08T03:18:43;100566.81;;;31.40;55.89
50684;BME280;36654;45.042;38.994;2023-08-08T03:21:09;100566.63;;;31.66;55.68
50684;BME280;36654;45.042;38.994;2023-08-08T03:23:34;100566.00;;;31.85;55.34
50684;BME280;36654;45.042;38.994;2023-08-08T03:26:00;100559.56;;;31.97;54.79
50684;BME280;36654;45.042;38.994;2023-08-08T03:28:25;100571.91;;;32.14;53.69
50684;BME280;36654;45.042;38.994;2023-08-08T03:30:51;100571.16;;;32.12;54.17
50684;BME280;36654;45.042;38.994;2023-08-08T03:33:17;100575.16;;;32.08;53.82
50684;BME280;36654;45.042;38.994;2023-08-08T03:35:42;100553.97;;;31.98;53.98
50684;BME280;36654;45.042;38.994;2023-08-08T03:38:09;100572.16;;;31.99;54.36
50684;BME280;36654;45.042;38.994;2023-08-08T03:40:35;100568.94;;;32.06;53.93
50684;BME280;36654;45.042;38.994;2023-08-08T03:43:00;100539.84;;;31.92;53.81
50684;BME280;36654;45.042;38.994;2023-08-08T03:45:27;100568.16;;;32.15;53.99
50684;BME280;36654;45.042;38.994;2023-08-08T03:47:52;100571.16;;;32.23;53.58
50684;BME280;36654;45.042;38.994;2023-08-08T03:50:18;100574.50;;;32.38;53.39
50684;BME280;36654;45.042;38.994;2023-08-08T03:52:43;100570.63;;;32.29;53.47
50684;BME280;36654;45.042;38.994;2023-08-08T03:55:09;100560.81;;;32.15;53.44
50684;BME280;36654;45.042;38.994;2023-08-08T03:57:35;100519.97;;;32.01;53.50
50684;BME280;36654;45.042;38.994;2023-08-08T04:00:00;100581.34;;;32.43;53.21
50684;BME280;36654;45.042;38.994;2023-08-08T04:02:26;100561.00;;;32.35;53.16
50684;BME280;36654;45.042;38.994;2023-08-08T04:04:53;100572.63;;;32.38;52.94
50684;BME280;36654;45.042;38.994;2023-08-08T04:07:19;100570.16;;;32.24;53.34
50684;BME280;36654;45.042;38.994;2023-08-08T04:09:44;100575.63;;;32.24;53.55
50684;BME280;36654;45.042;38.994;2023-08-08T04:12:10;100580.22;;;32.35;53.25
50684;BME280;36654;45.042;38.994;2023-08-08T04:14:36;100580.31;;;32.44;53.26
50684;BME280;36654;45.042;38.994;2023-08-08T04:17:01;100580.69;;;32.62;52.65
50684;BME280;36654;45.042;38.994;2023-08-08T04:19:28;100580.56;;;32.75;52.72
50684;BME280;36654;45.042;38.994;2023-08-08T04:21:54;100572.06;;;32.78;51.89
50684;BME280;36654;45.042;38.994;2023-08-08T04:24:19;100572.00;;;32.90;51.36
50684;BME280;36654;45.042;38.994;2023-08-08T04:26:45;100579.09;;;33.03;51.56
50684;BME280;36654;45.042;38.994;2023-08-08T04:29:11;100574.66;;;33.12;51.02
50684;BME280;36654;45.042;38.994;2023-08-08T04:31:36;100579.44;;;33.10;50.87
50684;BME280;36654;45.042;38.994;2023-08-08T04:34:02;100553.53;;;33.03;50.60
50684;BME280;36654;45.042;38.994;2023-08-08T04:36:28;100564.63;;;33.22;50.31
50684;BME280;36654;45.042;38.994;2023-08-08T04:38:54;100577.25;;;33.46;49.95
50684;BME280;36654;45.042;38.994;2023-08-08T04:41:20;100567.22;;;33.56;49.27
50684;BME280;36654;45.042;38.994;2023-08-08T04:43:45;100552.91;;;33.62;48.43
50684;BME280;36654;45.042;38.994;2023-08-08T04:46:11;100541.75;;;33.85;47.21
50684;BME280;36654;45.042;38.994;2023-08-08T04:48:37;100563.19;;;34.22;45.97
50684;BME280;36654;45.042;38.994;2023-08-08T04:51:07;100550.78;;;34.37;46.42
50684;BME280;36654;45.042;38.994;2023-08-08T04:53:33;100564.47;;;34.58;45.92
50684;BME280;36654;45.042;38.994;2023-08-08T04:55:59;100536.97;;;34.68;45.33
50684;BME280;36654;45.042;38.994;2023-08-08T04:58:24;100570.59;;;35.00;44.52
50684;BME280;36654;45.042;38.994;2023-08-08T05:00:50;100565.41;;;35.17;43.69
50684;BME280;36654;45.042;38.994;2023-08-08T05:03:16;100566.84;;;35.21;42.67
50684;BME280;36654;45.042;38.994;2023-08-08T05:05:42;100559.00;;;35.07;42.68
50684;BME280;36654;45.042;38.994;2023-08-08T05:08:11;100546.97;;;35.08;42.65
50684;BME280;36654;45.042;38.994;2023-08-08T05:10:36;100543.09;;;35.20;41.93
50684;BME280;36654;45.042;38.994;2023-08-08T05:13:02;100559.88;;;35.36;41.48
50684;BME280;36654;45.042;38.994;2023-08-08T05:15:28;100543.94;;;35.30;41.62
50684;BME280;36654;45.042;38.994;2023-08-08T05:17:54;100526.50;;;35.39;40.70
50684;BME280;36654;45.042;38.994;2023-08-08T05:20:21;100553.72;;;35.62;40.92
50684;BME280;36654;45.042;38.994;2023-08-08T05:22:47;100517.75;;;35.54;40.25
50684;BME280;36654;45.042;38.994;2023-08-08T05:25:13;100555.78;;;35.70;40.47
50684;BME280;36654;45.042;38.994;2023-08-08T05:27:39;100563.03;;;35.61;39.50
50684;BME280;36654;45.042;38.994;2023-08-08T05:30:05;100564.06;;;35.60;39.82
50684;BME280;36654;45.042;38.994;2023-08-08T05:32:31;100563.56;;;35.74;39.99
50684;BME280;36654;45.042;38.994;2023-08-08T05:34:57;100557.78;;;35.77;39.56
50684;BME280;36654;45.042;38.994;2023-08-08T05:37:23;100548.81;;;35.66;39.11
50684;BME280;36654;45.042;38.994;2023-08-08T05:39:49;100562.19;;;35.60;39.82
50684;BME280;36654;45.042;38.994;2023-08-08T05:42:15;100556.81;;;35.59;38.46
50684;BME280;36654;45.042;38.994;2023-08-08T05:44:40;100550.28;;;35.50;38.95
50684;BME280;36654;45.042;38.994;2023-08-08T05:47:10;100514.81;;;35.18;39.85
50684;BME280;36654;45.042;38.994;2023-08-08T05:49:35;100517.44;;;35.10;39.15
50684;BME280;36654;45.042;38.994;2023-08-08T05:52:01;100550.88;;;35.25;39.42
50684;BME280;36654;45.042;38.994;2023-08-08T05:54:27;100566.13;;;35.19;39.69
50684;BME280;36654;45.042;38.994;2023-08-08T05:56:53;100565.38;;;35.07;39.20
50684;BME280;36654;45.042;38.994;2023-08-08T05:59:19;100558.13;;;34.96;39.54
50684;BME280;36654;45.042;38.994;2023-08-08T06:01:45;100551.88;;;35.04;39.69
50684;BME280;36654;45.042;38.994;2023-08-08T06:04:12;100554.38;;;35.17;39.10
50684;BME280;36654;45.042;38.994;2023-08-08T06:06:38;100550.00;;;35.05;38.81
50684;BME280;36654;45.042;38.994;2023-08-08T06:09:03;100544.66;;;34.93;38.16
50684;BME280;36654;45.042;38.994;2023-08-08T06:11:29;100554.22;;;34.70;37.90
50684;BME280;36654;45.042;38.994;2023-08-08T06:13:55;100559.44;;;34.23;39.41
50684;BME280;36654;45.042;38.994;2023-08-08T06:16:21;100558.06;;;33.77;40.36
50684;BME280;36654;45.042;38.994;2023-08-08T06:18:47;100561.97;;;33.53;41.46
50684;BME280;36654;45.042;38.994;2023-08-08T06:21:13;100557.53;;;33.41;41.51
50684;BME280;36654;45.042;38.994;2023-08-08T06:23:38;100568.84;;;33.26;41.20
50684;BME280;36654;45.042;38.994;2023-08-08T06:26:04;100558.06;;;33.14;41.50
50684;BME280;36654;45.042;38.994;2023-08-08T06:28:30;100550.13;;;32.99;40.91
50684;BME280;36654;45.042;38.994;2023-08-08T06:30:58;100548.41;;;32.87;38.85
50684;BME280;36654;45.042;38.994;2023-08-08T06:33:24;100543.47;;;32.81;36.96
50684;BME280;36654;45.042;38.994;2023-08-08T06:35:49;100549.13;;;32.68;35.85
50684;BME280;36654;45.042;38.994;2023-08-08T06:38:15;100556.88;;;32.63;37.11
50684;BME280;36654;45.042;38.994;2023-08-08T06:40:41;100554.78;;;32.55;38.30
50684;BME280;36654;45.042;38.994;2023-08-08T06:43:06;100537.06;;;32.48;37.77
50684;BME280;36654;45.042;38.994;2023-08-08T06:45:32;100540.94;;;32.57;37.84
50684;BME280;36654;45.042;38.994;2023-08-08T06:47:58;100518.50;;;32.40;37.67
50684;BME280;36654;45.042;38.994;2023-08-08T06:50:24;100518.75;;;32.37;38.41
50684;BME280;36654;45.042;38.994;2023-08-08T06:52:52;100548.41;;;32.55;39.08
50684;BME280;36654;45.042;38.994;2023-08-08T06:55:18;100547.16;;;32.59;38.67
50684;BME280;36654;45.042;38.994;2023-08-08T06:57:43;100541.56;;;32.60;39.03
50684;BME280;36654;45.042;38.994;2023-08-08T07:00:09;100554.84;;;32.65;39.16
50684;BME280;36654;45.042;38.994;2023-08-08T07:02:39;100534.22;;;32.50;40.49
50684;BME280;36654;45.042;38.994;2023-08-08T07:05:06;100513.91;;;32.30;40.32
50684;BME280;36654;45.042;38.994;2023-08-08T07:07:32;100508.81;;;32.25;40.37
50684;BME280;36654;45.042;38.994;2023-08-08T07:09:59;100529.72;;;32.37;40.72
50684;BME280;36654;45.042;38.994;2023-08-08T07:12:25;100533.69;;;32.44;40.84
50684;BME280;36654;45.042;38.994;2023-08-08T07:14:50;100532.72;;;32.45;39.97
50684;BME280;36654;45.042;38.994;2023-08-08T07:17:16;100517.22;;;32.44;40.23
50684;BME280;36654;45.042;38.994;2023-08-08T07:19:42;100527.19;;;32.68;39.32
50684;BME280;36654;45.042;38.994;2023-08-08T07:22:07;100494.75;;;32.62;38.99
50684;BME280;36654;45.042;38.994;2023-08-08T07:24:34;100525.31;;;32.90;38.17
50684;BME280;36654;45.042;38.994;2023-08-08T07:26:59;100517.31;;;32.98;37.88
50684;BME280;36654;45.042;38.994;2023-08-08T07:29:25;100526.53;;;33.08;38.21
50684;BME280;36654;45.042;38.994;2023-08-08T07:31:52;100515.69;;;33.27;37.58
50684;BME280;36654;45.042;38.994;2023-08-08T07:34:18;100511.59;;;33.43;37.43
50684;BME280;36654;45.042;38.994;2023-08-08T07:36:44;100510.25;;;33.58;37.17
50684;BME280;36654;45.042;38.994;2023-08-08T07:39:09;100510.88;;;33.71;37.45
50684;BME280;36654;45.042;38.994;2023-08-08T07:41:36;100500.22;;;33.78;37.38
50684;BME280;36654;45.042;38.994;2023-08-08T07:44:02;100506.56;;;33.79;37.66
50684;BME280;36654;45.042;38.994;2023-08-08T07:46:27;100495.56;;;33.79;37.38
50684;BME280;36654;45.042;38.994;2023-08-08T07:48:53;100503.75;;;33.90;37.45
50684;BME280;36654;45.042;38.994;2023-08-08T07:51:19;100499.97;;;33.91;37.16
50684;BME280;36654;45.042;38.994;2023-08-08T07:53:45;100505.75;;;33.88;37.24
50684;BME280;36654;45.042;38.994;2023-08-08T07:56:10;100484.69;;;33.67;37.34
50684;BME280;36654;45.042;38.994;2023-08-08T07:58:36;100499.59;;;33.75;37.57
50684;BME280;36654;45.042;38.994;2023-08-08T08:01:01;100484.88;;;33.76;37.77
50684;BME280;36654;45.042;38.994;2023-08-08T08:03:27;100494.75;;;33.88;37.75
50684;BME280;36654;45.042;38.994;2023-08-08T08:05:53;100507.03;;;33.84;38.06
50684;BME280;36654;45.042;38.994;2023-08-08T08:08:19;100466.00;;;33.61;37.60
50684;BME280;36654;45.042;38.994;2023-08-08T08:10:44;100455.91;;;33.71;37.50
50684;BME280;36654;45.042;38.994;2023-08-08T08:13:11;100480.16;;;33.97;37.32
50684;BME280;36654;45.042;38.994;2023-08-08T08:15:37;100480.34;;;34.05;37.85
50684;BME280;36654;45.042;38.994;2023-08-08T08:18:03;100451.03;;;33.85;37.30
50684;BME280;36654;45.042;38.994;2023-08-08T08:20:29;100465.50;;;33.87;37.36
50684;BME280;36654;45.042;38.994;2023-08-08T08:22:55;100475.38;;;33.99;37.42
50684;BME280;36654;45.042;38.994;2023-08-08T08:25:20;100471.91;;;33.97;38.07
50684;BME280;36654;45.042;38.994;2023-08-08T08:27:46;100473.38;;;34.01;37.64
50684;BME280;36654;45.042;38.994;2023-08-08T08:30:12;100483.22;;;34.04;37.47
50684;BME280;36654;45.042;38.994;2023-08-08T08:32:40;100482.94;;;34.07;37.49
50684;BME280;36654;45.042;38.994;2023-08-08T08:35:07;100462.06;;;34.04;37.92
50684;BME280;36654;45.042;38.994;2023-08-08T08:37:33;100454.00;;;34.03;37.89
50684;BME280;36654;45.042;38.994;2023-08-08T08:40:00;100465.94;;;34.23;37.21
50684;BME280;36654;45.042;38.994;2023-08-08T08:42:28;100467.97;;;34.40;36.74
50684;BME280;36654;45.042;38.994;2023-08-08T08:44:58;100472.19;;;34.54;36.84
50684;BME280;36654;45.042;38.994;2023-08-08T08:47:25;100468.25;;;34.56;36.99
50684;BME280;36654;45.042;38.994;2023-08-08T08:49:55;100469.13;;;34.47;36.77
50684;BME280;36654;45.042;38.994;2023-08-08T08:52:22;100441.00;;;34.24;37.79
50684;BME280;36654;45.042;38.994;2023-08-08T08:54:51;100457.84;;;34.41;37.63
50684;BME280;36654;45.042;38.994;2023-08-08T08:57:17;100459.44;;;34.43;38.33
50684;BME280;36654;45.042;38.994;2023-08-08T08:59:44;100457.53;;;34.44;38.28
50684;BME280;36654;45.042;38.994;2023-08-08T09:02:10;100444.66;;;34.44;38.20
50684;BME280;36654;45.042;38.994;2023-08-08T09:04:36;100442.19;;;34.51;38.17
50684;BME280;36654;45.042;38.994;2023-08-08T09:07:02;100458.28;;;34.55;38.38
50684;BME280;36654;45.042;38.994;2023-08-08T09:09:33;100451.00;;;34.45;38.05
50684;BME280;36654;45.042;38.994;2023-08-08T09:12:01;100443.34;;;34.29;38.07
50684;BME280;36654;45.042;38.994;2023-08-08T09:14:26;100432.34;;;34.29;38.45
50684;BME280;36654;45.042;38.994;2023-08-08T09:16:53;100440.47;;;34.40;38.26
50684;BME280;36654;45.042;38.994;2023-08-08T09:19:20;100443.34;;;34.48;37.46
50684;BME280;36654;45.042;38.994;2023-08-08T09:21:47;100443.34;;;34.48;37.47
50684;BME280;36654;45.042;38.994;2023-08-08T09:24:13;100425.09;;;34.47;37.12
50684;BME280;36654;45.042;38.994;2023-08-08T09:26:43;100440.75;;;34.56;36.73
50684;BME280;36654;45.042;38.994;2023-08-08T09:29:11;100433.66;;;34.44;37.61
50684;BME280;36654;45.042;38.994;2023-08-08T09:31:37;100435.25;;;34.56;37.68
50684;BME280;36654;45.042;38.994;2023-08-08T09:34:04;100431.78;;;34.74;37.22
50684;BME280;36654;45.042;38.994;2023-08-08T09:36:30;100422.78;;;34.82;36.21
50684;BME280;36654;45.042;38.994;2023-08-08T09:38:56;100425.97;;;34.87;35.71
50684;BME280;36654;45.042;38.994;2023-08-08T09:41:23;100430.31;;;34.79;35.44
50684;BME280;36654;45.042;38.994;2023-08-08T09:43:51;100433.66;;;34.83;35.56
50684;BME280;36654;45.042;38.994;2023-08-08T09:46:19;100412.38;;;34.85;35.73
50684;BME280;36654;45.042;38.994;2023-08-08T09:48:45;100418.56;;;34.87;35.77
50684;BME280;36654;45.042;38.994;2023-08-08T09:51:12;100423.94;;;34.79;33.74
50684;BME280;36654;45.042;38.994;2023-08-08T09:53:39;100409.63;;;34.75;33.16
50684;BME280;36654;45.042;38.994;2023-08-08T09:56:07;100414.69;;;34.80;33.39
50684;BME280;36654;45.042;38.994;2023-08-08T09:58:33;100403.38;;;34.83;33.66
50684;BME280;36654;45.042;38.994;2023-08-08T10:00:59;100408.44;;;34.97;33.78
50684;BME280;36654;45.042;38.994;2023-08-08T10:03:25;100419.88;;;35.03;34.51
50684;BME280;36654;45.042;38.994;2023-08-08T10:05:52;100412.34;;;34.95;34.54
50684;BME280;36654;45.042;38.994;2023-08-08T10:08:18;100409.19;;;34.80;34.80
50684;BME280;36654;45.042;38.994;2023-08-08T10:10:46;100396.44;;;34.60;35.43
50684;BME280;36654;45.042;38.994;2023-08-08T10:13:23;100370.94;;;34.57;35.09
50684;BME280;36654;45.042;38.994;2023-08-08T10:15:50;100407.84;;;34.84;34.97
50684;BME280;36654;45.042;38.994;2023-08-08T10:18:17;100397.00;;;34.83;34.85
50684;BME280;36654;45.042;38.994;2023-08-08T10:20:46;100359.38;;;34.64;35.26
50684;BME280;36654;45.042;38.994;2023-08-08T10:23:14;100394.66;;;34.97;34.92
50684;BME280;36654;45.042;38.994;2023-08-08T10:25:44;100394.06;;;34.94;35.11
50684;BME280;36654;45.042;38.994;2023-08-08T10:28:13;100387.41;;;34.96;35.18
50684;BME280;36654;45.042;38.994;2023-08-08T10:30:46;100393.91;;;35.05;34.80
50684;BME280;36654;45.042;38.994;2023-08-08T10:33:20;100389.09;;;35.07;34.41
50684;BME280;36654;45.042;38.994;2023-08-08T10:36:05;100393.91;;;35.05;34.43
50684;BME280;36654;45.042;38.994;2023-08-08T10:38:44;100377.53;;;35.04;34.08
50684;BME280;36654;45.042;38.994;2023-08-08T10:41:16;100384.22;;;35.11;33.86
50684;BME280;36654;45.042;38.994;2023-08-08T10:43:53;100374.31;;;35.08;33.87
50684;BME280;36654;45.042;38.994;2023-08-08T10:46:27;100378.97;;;35.08;34.27
50684;BME280;36654;45.042;38.994;2023-08-08T10:48:56;100381.44;;;35.11;34.50
50684;BME280;36654;45.042;38.994;2023-08-08T10:51:38;100359.63;;;34.90;34.77
50684;BME280;36654;45.042;38.994;2023-08-08T10:54:25;100386.25;;;35.09;35.31
50684;BME280;36654;45.042;38.994;2023-08-08T10:56:57;100375.66;;;34.94;34.80
50684;BME280;36654;45.042;38.994;2023-08-08T10:59:35;100394.50;;;34.89;35.67
50684;BME280;36654;45.042;38.994;2023-08-08T11:02:02;100382.09;;;34.85;35.69
50684;BME280;36654;45.042;38.994;2023-08-08T11:04:28;100388.00;;;34.90;35.39
50684;BME280;36654;45.042;38.994;2023-08-08T11:06:56;100388.16;;;34.89;35.71
50684;BME280;36654;45.042;38.994;2023-08-08T11:09:22;100358.78;;;34.70;35.94
50684;BME280;36654;45.042;38.994;2023-08-08T11:11:49;100368.44;;;34.93;35.49
50684;BME280;36654;45.042;38.994;2023-08-08T11:14:20;100367.13;;;34.97;35.73
50684;BME280;36654;45.042;38.994;2023-08-08T11:16:47;100366.25;;;34.87;35.86
50684;BME280;36654;45.042;38.994;2023-08-08T11:19:14;100372.22;;;34.92;35.65
50684;BME280;36654;45.042;38.994;2023-08-08T11:21:42;100372.03;;;34.94;35.70
50684;BME280;36654;45.042;38.994;2023-08-08T11:24:09;100365.97;;;34.90;35.57
50684;BME280;36654;45.042;38.994;2023-08-08T11:26:39;100368.56;;;34.92;35.76
50684;BME280;36654;45.042;38.994;2023-08-08T11:29:06;100360.47;;;34.90;35.67
50684;BME280;36654;45.042;38.994;2023-08-08T11:31:33;100365.38;;;34.96;35.66
50684;BME280;36654;45.042;38.994;2023-08-08T11:33:59;100319.03;;;34.82;35.43
50684;BME280;36654;45.042;38.994;2023-08-08T11:36:33;100359.88;;;34.96;35.37
50684;BME280;36654;45.042;38.994;2023-08-08T11:39:01;100360.47;;;34.90;35.35
50684;BME280;36654;45.042;38.994;2023-08-08T11:41:37;100350.63;;;34.88;35.65
50684;BME280;36654;45.042;38.994;2023-08-08T11:44:04;100358.44;;;34.92;35.81
50684;BME280;36654;45.042;38.994;2023-08-08T11:46:30;100363.97;;;34.92;35.63
50684;BME280;36654;45.042;38.994;2023-08-08T11:49:05;100344.69;;;34.92;35.83
50684;BME280;36654;45.042;38.994;2023-08-08T11:51:32;100354.22;;;34.98;35.91
50684;BME280;36654;45.042;38.994;2023-08-08T11:53:59;100362.16;;;35.01;35.61
50684;BME280;36654;45.042;38.994;2023-08-08T11:56:26;100345.25;;;34.86;35.51
50684;BME280;36654;45.042;38.994;2023-08-08T11:58:52;100337.84;;;34.96;35.92
50684;BME280;36654;45.042;38.994;2023-08-08T12:01:25;100349.97;;;35.04;35.60
50684;BME280;36654;45.042;38.994;2023-08-08T12:03:51;100343.63;;;35.03;35.47
50684;BME280;36654;45.042;38.994;2023-08-08T12:06:18;100352.19;;;35.00;35.60
50684;BME280;36654;45.042;38.994;2023-08-08T12:08:45;100325.69;;;34.89;35.78
50684;BME280;36654;45.042;38.994;2023-08-08T12:11:11;100352.31;;;34.98;36.04
50684;BME280;36654;45.042;38.994;2023-08-08T12:13:39;100342.03;;;35.00;35.92
50684;BME280;36654;45.042;38.994;2023-08-08T12:16:13;100348.53;;;34.99;35.72
50684;BME280;36654;45.042;38.994;2023-08-08T12:18:39;100341.88;;;35.02;36.10
50684;BME280;36654;45.042;38.994;2023-08-08T12:21:07;100344.16;;;35.07;36.19
50684;BME280;36654;45.042;38.994;2023-08-08T12:23:33;100330.59;;;34.95;35.88
50684;BME280;36654;45.042;38.994;2023-08-08T12:25:59;100334.34;;;34.94;36.02
50684;BME280;36654;45.042;38.994;2023-08-08T12:28:25;100346.50;;;35.01;35.79
50684;BME280;36654;45.042;38.994;2023-08-08T12:30:51;100347.78;;;35.07;35.64
50684;BME280;36654;45.042;38.994;2023-08-08T12:33:17;100322.44;;;35.04;35.23
50684;BME280;36654;45.042;38.994;2023-08-08T12:35:43;100327.22;;;35.01;35.61
50684;BME280;36654;45.042;38.994;2023-08-08T12:38:08;100324.25;;;34.95;34.92